Terminal Aerodrome Forecast
Issued by NWS

Home | Current Version | Previous Version | Text Only | Print | Product List | Glossary On
Versions: 1 2 3 4 5 6 7 8 9 10 11 12 13 14 15 16 17 18 19
000
FTUS43 KEAX 281753 AAA
TAFMKC
TAF AMD
KMKC 281753Z 2818/2918 06007KT P6SM BKN010 OVC013
     FM290400 08012KT P6SM OVC015
     FM290700 08013KT 5SM SHRA BR OVC008
     FM291300 08013G24KT 2SM BR VCSH OVC003
     FM291600 08014KT 2SM BR VCSH OVC003=

USA.gov is the U.S. government's official web portal to all federal, state and local government web resources and services.